x

Long Island - 30 Nm South Of Islip, Ny (44025) Wave Buoy

10:50pm - Sat 6th Feb 2016 All times are EST. -5 hours from GMT.

  • Sig Wave height 2.6ft
  • Swell Direction
  • Peak Period 4s
  • Average Period 4s
  • Wind
    16mph, 18mph gusts
  • Sea Temp 43°f
  • Air Temp 40°f
  • Sea Pressure 1025.8mb
  • Long Island - 30 Nm South Of Islip, Ny
  • Long Island - 30 Nm South Of Islip, Ny

More Historic Weather Station data

Upgrade to MSW Pro to gain access to the past 30 days of data for over 8000 Wavebouys and Weather Stations around the globe.

Join Pro

Comparision Forecast

View Surf forecast
   
Sat 02/06 10:50pm 2.5ft 4s 4s 16 18 mph 1025.8mb 43f 40f
9:50pm 2.5ft 4s 4s 16 18 mph 1025.9mb 44f 40f
8:50pm 2.5ft 4s 4s 13 18 mph 1026mb 44f 40f
7:50pm 2.5ft 4s 4s 16 18 mph 1026.1mb 44f 40f
6:50pm 2.5ft 10s 4s 16 20 mph 1026.1mb 44f 40f
5:50pm 2.5ft 10s 4s 16 18 mph 1026mb 45f 39f
4:50pm 2.5ft 11s 4s 16 18 mph 1026.2mb 45f 39f
3:50pm 2.5ft 10s 5s 16 20 mph 1026.6mb 45f 38f
2:50pm 2.5ft 10s 5s 13 16 mph 1027.3mb 45f 38f
1:50pm 2ft 9s 6s 11 16 mph 1027.9mb 44f 37f
12:50pm 2ft 10s 6s 11 13 mph 1028.9mb 45f 36f
11:50am 2ft 10s 7s 9 13 mph 1030.1mb 45f 36f
10:50am 2ft 10s 6s 9 11 mph 1030.7mb 45f 36f
9:50am 2.5ft 10s 7s 7 9 mph 1030.9mb 45f 36f
8:50am 2.5ft 10s 6s 7 9 mph 1030.6mb 45f 35f
7:50am 2.5ft 11s 6s 4 7 mph 1030.2mb 45f 35f
6:50am 2.5ft 11s 6s 4 7 mph 1029.5mb 46f 35f
5:50am 2.5ft 11s 5s 4 9 mph 1029.2mb 46f 35f
4:50am 2.5ft 10s 5s 9 11 mph 1028.5mb 46f 35f
3:50am 2.5ft 10s 5s 11 18 mph 1027.7mb 46f 35f
2:50am 3.5ft 9s 5s 16 18 mph 1027.6mb 45f 35f
1:50am 3.5ft 5s 5s 16 20 mph 1027.4mb 45f 36f
12:50am 3.5ft 5s 5s 20 22 mph 1026.6mb 45f 36f
Fri 02/05 11:50pm 4ft 5s 5s 22 27 mph 1025.6mb 45f 36f
10:50pm 4.5ft 6s 4s 25 29 mph 1025.7mb 45f 37f
9:50pm 5ft 6s 5s 25 31 mph 1025.6mb 45f 38f
8:50pm 5ft 6s 5s 27 34 mph 1024.3mb 46f 39f
7:50pm 6ft 6s 5s 27 34 mph 1023.9mb 46f 40f
6:50pm 5.5ft 5s 5s 31 36 mph 1022.5mb 46f 40f
5:50pm 5ft 5s 5s 29 34 mph 1021.3mb 46f 41f
4:50pm 5ft 5s 5s 25 31 mph 1019.8mb 46f 41f
3:50pm 5.5ft 5s 5s 22 29 mph 1019.4mb 46f 39f
2:50pm 7ft 6s 5s 27 34 mph 1017.8mb 46f 38f
1:50pm 7ft 6s 5s 36 45 mph 1016.2mb 46f 35f
12:50pm 6.5ft 6s 5s 31 40 mph 1015.4mb 46f 34f
11:50am 6ft 6s 5s 29 36 mph 1015.1mb 45f 34f
10:50am 6ft 6s 5s 29 38 mph 1015.8mb 45f 34f
9:50am 7ft 5s 5s 31 36 mph 1017.2mb 45f 34f
8:50am 7ft 6s 5s 31 38 mph 1015.5mb 45f 35f
7:50am 6.5ft 5s 5s 34 43 mph 1014.8mb 45f 34f
6:50am 7ft 5s 5s 34 40 mph 1015.3mb 46f 35f
5:50am 6ft 5s 5s 31 40 mph 1014.2mb 46f 37f
4:50am 5ft 9s 5s 29 38 mph 1014.5mb 45f 38f
3:50am 5ft 8s 5s 29 34 mph 1014.2mb 45f 39f
2:50am 5ft 8s 5s 27 31 mph 1014.5mb 44f 40f
1:50am 5ft 8s 5s 20 25 mph 1016.2mb 44f 40f
12:50am 5ft 9s 5s 22 29 mph 1015.9mb 43f 40f
Thu 02/04 11:50pm 5ft 9s 6s 22 27 mph 1016.5mb 43f 42f
10:50pm 5ft 9s 7s 20 25 mph 1017mb 43f 43f
9:50pm 6ft 9s 8s 11 16 mph 1017mb 42f 43f
8:50pm 6ft 9s 8s 4 7 mph 1017.5mb 42f 44f
7:50pm 6ft 9s 8s 7 9 mph 1017.1mb 42f 44f
6:50pm 6ft 9s 7s 2 4 mph 1017.7mb 42f 44f
5:50pm 6ft 9s 7s 4 7 mph 1017.3mb 42f 44f
4:50pm 6.5ft 9s 7s 7 11 mph 1018.1mb 42f 45f
3:50pm 7ft 8s 7s 4 7 mph 1016mb 42f 45f
2:50pm 6ft 9s 7s 4 7 mph 1015.8mb 42f 45f
1:50pm 7ft 9s 7s 9 11 mph 1015.6mb 42f 45f
12:50pm 7.5ft 9s 7s 9
mph
1015.7mb 42f 46f
11:50am 7.5ft 9s 7s 11 16 mph 1015.9mb 43f 47f
10:50am 8ft 9s 7s 11 16 mph 1015.7mb 43f 47f
9:50am 7ft 8s 7s 16 18 mph 1015mb 43f 48f
8:50am 7.5ft 8s 7s 13 16 mph 1014mb 43f 47f
7:50am 7.5ft 8s 6s 16 18 mph 1012.8mb 43f 48f
6:50am 6.5ft 8s 6s 16 18 mph 1012.2mb 44f 48f
5:50am 6ft 8s 6s 13
mph
1012.1mb 44f 48f
4:50am 6ft 8s 6s 9 11 mph 1012.2mb 44f 48f
3:50am 5.5ft 8s 6s 11 13 mph 1012.1mb 44f 48f
2:50am 5.5ft 7s 5s 13 16 mph 1012.3mb 44f 48f
1:50am 6.5ft 7s 5s 18 20 mph 1012.1mb 44f 49f
12:50am 6ft 7s 5s 18 20 mph 1011.9mb 44f 49f
Wed 02/03 11:50pm 6.5ft 7s 5s 22 27 mph 1011mb 44f 51f
10:50pm 6.5ft 7s 5s 22 29 mph 1010.8mb 44f 51f
9:50pm 6ft 7s 5s 25 27 mph 1011.7mb 44f 50f
8:50pm 6ft 7s 5s 20 25 mph 1013.8mb 44f 49f
7:50pm 6ft 6s 5s 18 20 mph 1014mb 44f 50f
6:50pm 5.5ft 6s 5s 22 27 mph 1014.2mb 44f 52f
5:50pm 6ft 7s 5s 18 22 mph 1014.1mb 44f 51f
4:50pm 6ft 7s 5s 18 20 mph 1014.5mb 44f 51f
3:50pm 5ft 6s 5s 18 20 mph 1015mb 44f 51f
2:50pm 6.5ft 7s 5s 20 25 mph 1015mb 44f 51f
1:50pm 7ft 7s 5s 25 29 mph 1014.5mb 44f 52f
12:50pm 6ft 7s 5s 25 27 mph 1015.8mb 44f 51f
11:50am 5.5ft 6s 5s 22 27 mph 1017.6mb 44f 51f
10:50am 5ft 6s 5s 22 27 mph 1018.9mb 44f 50f
9:50am 4.5ft 5s 5s 25 29 mph 1020.1mb 43f 49f
8:50am 4ft 5s 5s 20 25 mph 1021.9mb 43f 49f
7:50am 3.5ft 5s 4s 20 22 mph 1022.4mb 43f 48f
6:50am 3.5ft 5s 4s 16 18 mph 1023.6mb 43f 48f
5:50am 3.5ft 5s 5s 13 16 mph 1024mb 43f 47f